Terminal Aerodrome Forecast
Issued by NWS

Home | Current Version | Previous Version | Text Only | Print | Product List | Glossary On
Versions: 1 2 3 4 5 6 7 8 9 10 11 12 13 14 15
000
FTUS43 KSGF 302300
TAFJLN
TAF
KJLN 302320Z 0100/0124 VRB05KT P6SM BKN250
     FM010800 19010KT P6SM SCT250 WS015/23040KT
     FM011500 21014G20KT P6SM BKN250
     FM012000 20018G23KT P6SM BKN250 PROB30 0120/0124 P6SM TS
      BKN050CB=

USA.gov is the U.S. government's official web portal to all federal, state and local government web resources and services.